sensor_id;sensor_type;location;lat;lon;timestamp;temperature;humidity
6724;DHT22;3399;52.530;13.304;2023-04-25T00:02:04;8.80;99.90
6724;DHT22;3399;52.530;13.304;2023-04-25T00:04:30;8.80;99.90
6724;DHT22;3399;52.530;13.304;2023-04-25T00:06:59;8.90;99.90
6724;DHT22;3399;52.530;13.304;2023-04-25T00:09:27;8.90;99.90
6724;DHT22;3399;52.530;13.304;2023-04-25T00:11:52;8.90;99.90
6724;DHT22;3399;52.530;13.304;2023-04-25T00:14:18;8.90;99.90
6724;DHT22;3399;52.530;13.304;2023-04-25T00:16:43;8.90;99.90
6724;DHT22;3399;52.530;13.304;2023-04-25T00:19:09;8.90;99.90
6724;DHT22;3399;52.530;13.304;2023-04-25T00:21:35;8.90;99.90
6724;DHT22;3399;52.530;13.304;2023-04-25T00:24:03;8.90;99.90
6724;DHT22;3399;52.530;13.304;2023-04-25T00:26:29;8.90;99.90
6724;DHT22;3399;52.530;13.304;2023-04-25T00:28:55;8.90;99.90
6724;DHT22;3399;52.530;13.304;2023-04-25T00:31:21;8.90;99.90
6724;DHT22;3399;52.530;13.304;2023-04-25T00:33:46;8.90;99.90
6724;DHT22;3399;52.530;13.304;2023-04-25T00:36:11;8.90;99.90
6724;DHT22;3399;52.530;13.304;2023-04-25T00:38:38;8.80;99.90
6724;DHT22;3399;52.530;13.304;2023-04-25T00:41:07;8.80;99.90
6724;DHT22;3399;52.530;13.304;2023-04-25T00:43:33;8.80;99.90
6724;DHT22;3399;52.530;13.304;2023-04-25T00:46:00;8.80;99.90
6724;DHT22;3399;52.530;13.304;2023-04-25T00:48:26;8.70;99.90
6724;DHT22;3399;52.530;13.304;2023-04-25T00:50:53;8.80;99.90
6724;DHT22;3399;52.530;13.304;2023-04-25T00:53:24;8.80;99.90
6724;DHT22;3399;52.530;13.304;2023-04-25T00:55:50;8.80;99.90
6724;DHT22;3399;52.530;13.304;2023-04-25T00:58:20;8.80;99.90
6724;DHT22;3399;52.530;13.304;2023-04-25T01:00:47;8.80;99.90
6724;DHT22;3399;52.530;13.304;2023-04-25T01:03:16;8.80;99.90
6724;DHT22;3399;52.530;13.304;2023-04-25T01:05:45;8.80;99.90
6724;DHT22;3399;52.530;13.304;2023-04-25T01:08:12;8.80;99.90
6724;DHT22;3399;52.530;13.304;2023-04-25T01:10:38;8.80;99.90
6724;DHT22;3399;52.530;13.304;2023-04-25T01:13:04;8.80;99.90
6724;DHT22;3399;52.530;13.304;2023-04-25T01:15:30;8.80;99.90
6724;DHT22;3399;52.530;13.304;2023-04-25T01:17:57;8.80;99.90
6724;DHT22;3399;52.530;13.304;2023-04-25T01:20:24;8.80;99.90
6724;DHT22;3399;52.530;13.304;2023-04-25T01:22:50;8.70;99.90
6724;DHT22;3399;52.530;13.304;2023-04-25T01:25:17;8.70;99.90
6724;DHT22;3399;52.530;13.304;2023-04-25T01:27:42;8.70;99.90
6724;DHT22;3399;52.530;13.304;2023-04-25T01:30:09;8.70;99.90
6724;DHT22;3399;52.530;13.304;2023-04-25T01:32:35;8.70;99.90
6724;DHT22;3399;52.530;13.304;2023-04-25T01:35:08;8.60;99.90
6724;DHT22;3399;52.530;13.304;2023-04-25T01:37:38;8.70;99.90
6724;DHT22;3399;52.530;13.304;2023-04-25T01:40:08;8.60;99.90
6724;DHT22;3399;52.530;13.304;2023-04-25T01:42:35;8.70;99.90
6724;DHT22;3399;52.530;13.304;2023-04-25T01:45:02;8.70;99.90
6724;DHT22;3399;52.530;13.304;2023-04-25T01:47:28;8.70;99.90
6724;DHT22;3399;52.530;13.304;2023-04-25T01:49:53;8.80;99.90
6724;DHT22;3399;52.530;13.304;2023-04-25T01:52:19;8.70;99.90
6724;DHT22;3399;52.530;13.304;2023-04-25T01:54:45;8.70;99.90
6724;DHT22;3399;52.530;13.304;2023-04-25T01:57:11;8.70;99.90
6724;DHT22;3399;52.530;13.304;2023-04-25T01:59:37;8.70;99.90
6724;DHT22;3399;52.530;13.304;2023-04-25T02:02:02;8.70;99.90
6724;DHT22;3399;52.530;13.304;2023-04-25T02:04:29;8.70;99.90
6724;DHT22;3399;52.530;13.304;2023-04-25T02:06:58;8.70;99.90
6724;DHT22;3399;52.530;13.304;2023-04-25T02:09:23;8.70;99.90
6724;DHT22;3399;52.530;13.304;2023-04-25T02:11:49;8.70;99.90
6724;DHT22;3399;52.530;13.304;2023-04-25T02:14:14;8.70;99.90
6724;DHT22;3399;52.530;13.304;2023-04-25T02:16:40;8.70;99.90
6724;DHT22;3399;52.530;13.304;2023-04-25T02:19:06;8.60;99.90
6724;DHT22;3399;52.530;13.304;2023-04-25T02:21:31;8.60;99.90
6724;DHT22;3399;52.530;13.304;2023-04-25T02:23:57;8.50;99.90
6724;DHT22;3399;52.530;13.304;2023-04-25T02:26:23;8.50;99.90
6724;DHT22;3399;52.530;13.304;2023-04-25T02:28:52;8.50;99.90
6724;DHT22;3399;52.530;13.304;2023-04-25T02:31:17;8.50;99.90
6724;DHT22;3399;52.530;13.304;2023-04-25T02:33:43;8.50;99.90
6724;DHT22;3399;52.530;13.304;2023-04-25T02:36:09;8.50;99.90
6724;DHT22;3399;52.530;13.304;2023-04-25T02:38:37;8.50;99.90
6724;DHT22;3399;52.530;13.304;2023-04-25T02:41:06;8.50;99.90
6724;DHT22;3399;52.530;13.304;2023-04-25T02:43:31;8.50;99.90
6724;DHT22;3399;52.530;13.304;2023-04-25T02:46:03;8.50;99.90
6724;DHT22;3399;52.530;13.304;2023-04-25T02:48:29;8.50;99.90
6724;DHT22;3399;52.530;13.304;2023-04-25T02:50:54;8.50;99.90
6724;DHT22;3399;52.530;13.304;2023-04-25T02:53:20;8.50;99.90
6724;DHT22;3399;52.530;13.304;2023-04-25T02:55:45;8.50;99.90
6724;DHT22;3399;52.530;13.304;2023-04-25T02:58:11;8.40;99.90
6724;DHT22;3399;52.530;13.304;2023-04-25T03:00:36;8.40;99.90
6724;DHT22;3399;52.530;13.304;2023-04-25T03:03:02;8.40;99.90
6724;DHT22;3399;52.530;13.304;2023-04-25T03:05:27;8.40;99.90
6724;DHT22;3399;52.530;13.304;2023-04-25T03:07:52;8.40;99.90
6724;DHT22;3399;52.530;13.304;2023-04-25T03:10:18;8.40;99.90
6724;DHT22;3399;52.530;13.304;2023-04-25T03:12:43;8.40;99.90
6724;DHT22;3399;52.530;13.304;2023-04-25T03:15:09;8.40;99.90
6724;DHT22;3399;52.530;13.304;2023-04-25T03:17:35;8.40;99.90
6724;DHT22;3399;52.530;13.304;2023-04-25T03:20:00;8.40;99.90
6724;DHT22;3399;52.530;13.304;2023-04-25T03:22:26;8.40;99.90
6724;DHT22;3399;52.530;13.304;2023-04-25T03:24:51;8.40;99.90
6724;DHT22;3399;52.530;13.304;2023-04-25T03:27:17;8.40;99.90
6724;DHT22;3399;52.530;13.304;2023-04-25T03:29:43;8.40;99.90
6724;DHT22;3399;52.530;13.304;2023-04-25T03:32:08;8.30;99.90
6724;DHT22;3399;52.530;13.304;2023-04-25T03:34:34;8.30;99.90
6724;DHT22;3399;52.530;13.304;2023-04-25T03:37:00;8.30;99.90
6724;DHT22;3399;52.530;13.304;2023-04-25T03:39:25;8.30;99.90
6724;DHT22;3399;52.530;13.304;2023-04-25T03:41:51;8.30;99.90
6724;DHT22;3399;52.530;13.304;2023-04-25T03:44:17;8.40;99.90
6724;DHT22;3399;52.530;13.304;2023-04-25T03:46:42;8.40;99.90
6724;DHT22;3399;52.530;13.304;2023-04-25T03:49:08;8.30;99.90
6724;DHT22;3399;52.530;13.304;2023-04-25T03:51:33;8.30;99.90
6724;DHT22;3399;52.530;13.304;2023-04-25T03:53:59;8.40;99.90
6724;DHT22;3399;52.530;13.304;2023-04-25T03:56:24;8.40;99.90
6724;DHT22;3399;52.530;13.304;2023-04-25T03:58:50;8.40;99.90
6724;DHT22;3399;52.530;13.304;2023-04-25T04:01:15;8.40;99.90
6724;DHT22;3399;52.530;13.304;2023-04-25T04:03:41;8.40;99.90
6724;DHT22;3399;52.530;13.304;2023-04-25T04:06:07;8.50;99.90
6724;DHT22;3399;52.530;13.304;2023-04-25T04:08:34;8.60;99.90
6724;DHT22;3399;52.530;13.304;2023-04-25T04:11:00;8.70;99.90
6724;DHT22;3399;52.530;13.304;2023-04-25T04:13:26;8.70;99.90
6724;DHT22;3399;52.530;13.304;2023-04-25T04:15:52;8.80;99.90
6724;DHT22;3399;52.530;13.304;2023-04-25T04:18:18;8.60;99.90
6724;DHT22;3399;52.530;13.304;2023-04-25T04:20:43;8.60;99.90
6724;DHT22;3399;52.530;13.304;2023-04-25T04:23:09;8.50;99.90
6724;DHT22;3399;52.530;13.304;2023-04-25T04:25:36;8.50;99.90
6724;DHT22;3399;52.530;13.304;2023-04-25T04:28:01;8.50;99.90
6724;DHT22;3399;52.530;13.304;2023-04-25T04:30:27;8.40;99.90
6724;DHT22;3399;52.530;13.304;2023-04-25T04:32:56;8.40;99.90
6724;DHT22;3399;52.530;13.304;2023-04-25T04:35:22;8.50;99.90
6724;DHT22;3399;52.530;13.304;2023-04-25T04:37:48;8.50;99.90
6724;DHT22;3399;52.530;13.304;2023-04-25T04:40:14;8.50;99.90
6724;DHT22;3399;52.530;13.304;2023-04-25T04:42:44;8.50;99.90
6724;DHT22;3399;52.530;13.304;2023-04-25T04:45:11;8.50;99.90
6724;DHT22;3399;52.530;13.304;2023-04-25T04:47:38;8.60;99.90
6724;DHT22;3399;52.530;13.304;2023-04-25T04:50:08;8.50;99.90
6724;DHT22;3399;52.530;13.304;2023-04-25T04:52:38;8.50;99.90
6724;DHT22;3399;52.530;13.304;2023-04-25T04:55:04;8.50;99.90
6724;DHT22;3399;52.530;13.304;2023-04-25T04:57:31;8.50;99.90
6724;DHT22;3399;52.530;13.304;2023-04-25T04:59:58;8.60;99.90
6724;DHT22;3399;52.530;13.304;2023-04-25T05:02:24;8.60;99.90
6724;DHT22;3399;52.530;13.304;2023-04-25T05:04:49;8.60;99.90
6724;DHT22;3399;52.530;13.304;2023-04-25T05:07:17;8.50;99.90
6724;DHT22;3399;52.530;13.304;2023-04-25T05:09:42;8.50;99.90
6724;DHT22;3399;52.530;13.304;2023-04-25T05:12:07;8.50;99.90
6724;DHT22;3399;52.530;13.304;2023-04-25T05:14:33;8.60;99.90
6724;DHT22;3399;52.530;13.304;2023-04-25T05:16:58;8.60;99.90
6724;DHT22;3399;52.530;13.304;2023-04-25T05:19:24;8.60;99.90
6724;DHT22;3399;52.530;13.304;2023-04-25T05:21:50;8.60;99.90
6724;DHT22;3399;52.530;13.304;2023-04-25T05:24:15;8.60;99.90
6724;DHT22;3399;52.530;13.304;2023-04-25T05:26:41;8.50;99.90
6724;DHT22;3399;52.530;13.304;2023-04-25T05:29:06;8.50;99.90
6724;DHT22;3399;52.530;13.304;2023-04-25T05:31:32;8.50;99.90
6724;DHT22;3399;52.530;13.304;2023-04-25T05:33:58;8.60;99.90
6724;DHT22;3399;52.530;13.304;2023-04-25T05:36:23;8.60;99.90
6724;DHT22;3399;52.530;13.304;2023-04-25T05:38:49;8.60;99.90
6724;DHT22;3399;52.530;13.304;2023-04-25T05:41:14;8.50;99.90
6724;DHT22;3399;52.530;13.304;2023-04-25T05:43:40;8.50;99.90
6724;DHT22;3399;52.530;13.304;2023-04-25T05:46:10;8.50;99.90
6724;DHT22;3399;52.530;13.304;2023-04-25T05:48:37;8.50;99.90
6724;DHT22;3399;52.530;13.304;2023-04-25T05:51:03;8.50;99.90
6724;DHT22;3399;52.530;13.304;2023-04-25T05:53:29;8.60;99.90
6724;DHT22;3399;52.530;13.304;2023-04-25T05:55:54;8.60;99.90
6724;DHT22;3399;52.530;13.304;2023-04-25T05:58:20;8.60;99.90
6724;DHT22;3399;52.530;13.304;2023-04-25T06:00:45;8.50;99.90
6724;DHT22;3399;52.530;13.304;2023-04-25T06:03:11;8.60;99.90
6724;DHT22;3399;52.530;13.304;2023-04-25T06:05:38;8.60;99.90
6724;DHT22;3399;52.530;13.304;2023-04-25T06:08:04;8.70;99.90
6724;DHT22;3399;52.530;13.304;2023-04-25T06:10:30;8.70;99.90
6724;DHT22;3399;52.530;13.304;2023-04-25T06:12:55;8.80;99.90
6724;DHT22;3399;52.530;13.304;2023-04-25T06:15:21;8.80;99.90
6724;DHT22;3399;52.530;13.304;2023-04-25T06:17:46;8.90;99.90
6724;DHT22;3399;52.530;13.304;2023-04-25T06:20:12;8.90;99.90
6724;DHT22;3399;52.530;13.304;2023-04-25T06:22:37;8.90;99.90
6724;DHT22;3399;52.530;13.304;2023-04-25T06:25:03;8.90;99.90
6724;DHT22;3399;52.530;13.304;2023-04-25T06:27:29;8.90;99.90
6724;DHT22;3399;52.530;13.304;2023-04-25T06:29:55;8.80;99.90
6724;DHT22;3399;52.530;13.304;2023-04-25T06:32:20;8.80;99.90
6724;DHT22;3399;52.530;13.304;2023-04-25T06:34:46;8.80;99.90
6724;DHT22;3399;52.530;13.304;2023-04-25T06:37:11;8.70;99.90
6724;DHT22;3399;52.530;13.304;2023-04-25T06:39:37;8.70;99.90
6724;DHT22;3399;52.530;13.304;2023-04-25T06:42:02;8.70;99.90
6724;DHT22;3399;52.530;13.304;2023-04-25T06:44:28;8.70;99.90
6724;DHT22;3399;52.530;13.304;2023-04-25T06:46:54;8.70;99.90
6724;DHT22;3399;52.530;13.304;2023-04-25T06:49:20;8.60;99.90
6724;DHT22;3399;52.530;13.304;2023-04-25T06:51:45;8.70;99.90
6724;DHT22;3399;52.530;13.304;2023-04-25T06:54:11;8.70;99.90
6724;DHT22;3399;52.530;13.304;2023-04-25T06:56:36;8.70;99.90
6724;DHT22;3399;52.530;13.304;2023-04-25T06:59:02;8.70;99.90
6724;DHT22;3399;52.530;13.304;2023-04-25T07:01:27;8.80;99.90
6724;DHT22;3399;52.530;13.304;2023-04-25T07:03:53;8.80;99.90
6724;DHT22;3399;52.530;13.304;2023-04-25T07:06:18;8.90;99.90
6724;DHT22;3399;52.530;13.304;2023-04-25T07:08:44;8.80;99.90
6724;DHT22;3399;52.530;13.304;2023-04-25T07:11:09;8.70;99.90
6724;DHT22;3399;52.530;13.304;2023-04-25T07:13:34;8.60;99.90
6724;DHT22;3399;52.530;13.304;2023-04-25T07:16:00;8.50;99.90
6724;DHT22;3399;52.530;13.304;2023-04-25T07:18:26;8.50;99.90
6724;DHT22;3399;52.530;13.304;2023-04-25T07:20:51;8.50;99.90
6724;DHT22;3399;52.530;13.304;2023-04-25T07:23:17;8.60;99.90
6724;DHT22;3399;52.530;13.304;2023-04-25T07:25:42;8.60;99.90
6724;DHT22;3399;52.530;13.304;2023-04-25T07:28:08;8.60;99.90
6724;DHT22;3399;52.530;13.304;2023-04-25T07:30:34;8.70;99.90
6724;DHT22;3399;52.530;13.304;2023-04-25T07:33:00;8.70;99.90
6724;DHT22;3399;52.530;13.304;2023-04-25T07:35:25;8.80;99.90
6724;DHT22;3399;52.530;13.304;2023-04-25T07:37:51;8.90;99.90
6724;DHT22;3399;52.530;13.304;2023-04-25T07:40:17;8.90;99.90
6724;DHT22;3399;52.530;13.304;2023-04-25T07:42:42;8.90;99.90
6724;DHT22;3399;52.530;13.304;2023-04-25T07:45:08;8.80;99.90
6724;DHT22;3399;52.530;13.304;2023-04-25T07:47:35;8.90;99.90
6724;DHT22;3399;52.530;13.304;2023-04-25T07:50:00;8.90;99.90
6724;DHT22;3399;52.530;13.304;2023-04-25T07:52:26;9.00;99.90
6724;DHT22;3399;52.530;13.304;2023-04-25T07:54:51;9.00;99.90
6724;DHT22;3399;52.530;13.304;2023-04-25T07:57:17;9.10;99.90
6724;DHT22;3399;52.530;13.304;2023-04-25T07:59:43;9.10;99.90
6724;DHT22;3399;52.530;13.304;2023-04-25T08:02:09;9.10;99.90
6724;DHT22;3399;52.530;13.304;2023-04-25T08:04:34;9.20;99.90
6724;DHT22;3399;52.530;13.304;2023-04-25T08:07:00;9.30;99.90
6724;DHT22;3399;52.530;13.304;2023-04-25T08:09:25;9.20;99.90
6724;DHT22;3399;52.530;13.304;2023-04-25T08:11:51;9.30;99.90
6724;DHT22;3399;52.530;13.304;2023-04-25T08:14:17;9.30;99.90
6724;DHT22;3399;52.530;13.304;2023-04-25T08:16:42;9.20;99.90
6724;DHT22;3399;52.530;13.304;2023-04-25T08:19:08;9.20;99.90
6724;DHT22;3399;52.530;13.304;2023-04-25T08:21:33;9.30;99.90
6724;DHT22;3399;52.530;13.304;2023-04-25T08:23:59;9.40;99.90
6724;DHT22;3399;52.530;13.304;2023-04-25T08:26:25;9.60;99.90
6724;DHT22;3399;52.530;13.304;2023-04-25T08:28:50;9.60;99.90
6724;DHT22;3399;52.530;13.304;2023-04-25T08:31:16;9.70;99.90
6724;DHT22;3399;52.530;13.304;2023-04-25T08:33:42;9.60;99.90
6724;DHT22;3399;52.530;13.304;2023-04-25T08:36:07;9.50;99.90
6724;DHT22;3399;52.530;13.304;2023-04-25T08:38:33;9.60;99.90
6724;DHT22;3399;52.530;13.304;2023-04-25T08:41:00;9.80;99.90
6724;DHT22;3399;52.530;13.304;2023-04-25T08:43:26;9.90;99.90
6724;DHT22;3399;52.530;13.304;2023-04-25T08:45:54;9.80;99.90
6724;DHT22;3399;52.530;13.304;2023-04-25T08:48:24;9.90;99.90
6724;DHT22;3399;52.530;13.304;2023-04-25T08:50:53;9.80;99.90
6724;DHT22;3399;52.530;13.304;2023-04-25T08:53:25;9.70;99.90
6724;DHT22;3399;52.530;13.304;2023-04-25T08:55:53;9.80;98.90
6724;DHT22;3399;52.530;13.304;2023-04-25T08:58:19;9.70;97.90
6724;DHT22;3399;52.530;13.304;2023-04-25T09:00:48;9.60;98.00
6724;DHT22;3399;52.530;13.304;2023-04-25T09:03:15;9.50;97.90
6724;DHT22;3399;52.530;13.304;2023-04-25T09:05:41;9.50;98.40
6724;DHT22;3399;52.530;13.304;2023-04-25T09:08:07;9.60;98.90
6724;DHT22;3399;52.530;13.304;2023-04-25T09:10:33;9.80;98.40
6724;DHT22;3399;52.530;13.304;2023-04-25T09:13:10;10.00;98.00
6724;DHT22;3399;52.530;13.304;2023-04-25T09:15:50;10.40;97.90
6724;DHT22;3399;52.530;13.304;2023-04-25T09:18:25;10.50;97.20
6724;DHT22;3399;52.530;13.304;2023-04-25T09:20:53;10.50;97.00
6724;DHT22;3399;52.530;13.304;2023-04-25T09:23:19;10.50;96.50
6724;DHT22;3399;52.530;13.304;2023-04-25T09:25:48;10.60;96.60
6724;DHT22;3399;52.530;13.304;2023-04-25T09:28:13;10.60;95.70
6724;DHT22;3399;52.530;13.304;2023-04-25T09:30:39;10.50;96.40
6724;DHT22;3399;52.530;13.304;2023-04-25T09:33:06;10.60;94.90
6724;DHT22;3399;52.530;13.304;2023-04-25T09:35:36;10.60;94.10
6724;DHT22;3399;52.530;13.304;2023-04-25T09:38:13;10.60;93.20
6724;DHT22;3399;52.530;13.304;2023-04-25T09:40:46;10.70;91.50
6724;DHT22;3399;52.530;13.304;2023-04-25T09:43:19;10.70;91.80
6724;DHT22;3399;52.530;13.304;2023-04-25T09:45:45;10.70;91.50
6724;DHT22;3399;52.530;13.304;2023-04-25T09:48:20;10.60;90.90
6724;DHT22;3399;52.530;13.304;2023-04-25T09:51:12;10.70;90.30
6724;DHT22;3399;52.530;13.304;2023-04-25T09:53:45;10.70;91.30
6724;DHT22;3399;52.530;13.304;2023-04-25T09:56:12;10.90;91.70
6724;DHT22;3399;52.530;13.304;2023-04-25T09:58:39;11.00;91.00
6724;DHT22;3399;52.530;13.304;2023-04-25T10:01:07;11.00;89.80
6724;DHT22;3399;52.530;13.304;2023-04-25T10:03:39;11.10;88.70
6724;DHT22;3399;52.530;13.304;2023-04-25T10:06:08;11.30;89.30
6724;DHT22;3399;52.530;13.304;2023-04-25T10:08:37;11.40;88.80
6724;DHT22;3399;52.530;13.304;2023-04-25T10:11:07;11.30;87.10
6724;DHT22;3399;52.530;13.304;2023-04-25T10:13:34;11.40;86.60
6724;DHT22;3399;52.530;13.304;2023-04-25T10:16:02;11.40;86.50
6724;DHT22;3399;52.530;13.304;2023-04-25T10:18:29;11.40;87.90
6724;DHT22;3399;52.530;13.304;2023-04-25T10:21:04;11.30;86.10
6724;DHT22;3399;52.530;13.304;2023-04-25T10:23:30;11.30;88.90
6724;DHT22;3399;52.530;13.304;2023-04-25T10:25:57;11.20;86.60
6724;DHT22;3399;52.530;13.304;2023-04-25T10:28:23;10.90;88.20
6724;DHT22;3399;52.530;13.304;2023-04-25T10:31:01;10.70;87.50
6724;DHT22;3399;52.530;13.304;2023-04-25T10:33:35;10.70;86.50
6724;DHT22;3399;52.530;13.304;2023-04-25T10:36:14;10.80;85.30
6724;DHT22;3399;52.530;13.304;2023-04-25T10:38:41;11.00;86.20
6724;DHT22;3399;52.530;13.304;2023-04-25T10:41:08;11.00;85.90
6724;DHT22;3399;52.530;13.304;2023-04-25T10:43:42;11.00;87.40
6724;DHT22;3399;52.530;13.304;2023-04-25T10:46:22;11.20;86.10
6724;DHT22;3399;52.530;13.304;2023-04-25T10:48:53;11.20;85.40
6724;DHT22;3399;52.530;13.304;2023-04-25T10:51:33;11.20;84.40
6724;DHT22;3399;52.530;13.304;2023-04-25T10:54:02;11.20;84.60
6724;DHT22;3399;52.530;13.304;2023-04-25T10:56:39;11.40;84.40
6724;DHT22;3399;52.530;13.304;2023-04-25T10:59:16;11.50;83.60
6724;DHT22;3399;52.530;13.304;2023-04-25T11:01:46;11.60;81.70
6724;DHT22;3399;52.530;13.304;2023-04-25T11:04:23;11.80;82.20
6724;DHT22;3399;52.530;13.304;2023-04-25T11:07:13;11.80;80.70
6724;DHT22;3399;52.530;13.304;2023-04-25T11:09:44;11.40;81.90
6724;DHT22;3399;52.530;13.304;2023-04-25T11:12:10;11.00;84.40
6724;DHT22;3399;52.530;13.304;2023-04-25T11:14:40;10.50;85.90
6724;DHT22;3399;52.530;13.304;2023-04-25T11:17:06;10.30;85.90
6724;DHT22;3399;52.530;13.304;2023-04-25T11:19:31;10.00;85.60
6724;DHT22;3399;52.530;13.304;2023-04-25T11:21:58;10.10;85.30
6724;DHT22;3399;52.530;13.304;2023-04-25T11:24:31;10.10;81.10
6724;DHT22;3399;52.530;13.304;2023-04-25T11:27:01;10.10;80.90
6724;DHT22;3399;52.530;13.304;2023-04-25T11:29:32;10.10;80.40
6724;DHT22;3399;52.530;13.304;2023-04-25T11:31:58;10.20;80.60
6724;DHT22;3399;52.530;13.304;2023-04-25T11:34:24;10.20;79.60
6724;DHT22;3399;52.530;13.304;2023-04-25T11:36:51;10.30;76.80
6724;DHT22;3399;52.530;13.304;2023-04-25T11:39:21;10.30;77.30
6724;DHT22;3399;52.530;13.304;2023-04-25T11:41:47;10.30;78.20
6724;DHT22;3399;52.530;13.304;2023-04-25T11:44:15;10.40;74.90
6724;DHT22;3399;52.530;13.304;2023-04-25T11:46:42;10.50;77.30
6724;DHT22;3399;52.530;13.304;2023-04-25T11:49:07;10.50;76.20
6724;DHT22;3399;52.530;13.304;2023-04-25T11:51:43;10.50;76.80
6724;DHT22;3399;52.530;13.304;2023-04-25T11:54:09;10.50;77.40
6724;DHT22;3399;52.530;13.304;2023-04-25T11:56:35;10.50;77.90
6724;DHT22;3399;52.530;13.304;2023-04-25T11:59:02;10.70;76.80
6724;DHT22;3399;52.530;13.304;2023-04-25T12:01:33;10.80;79.00
6724;DHT22;3399;52.530;13.304;2023-04-25T12:04:16;10.80;79.10
6724;DHT22;3399;52.530;13.304;2023-04-25T12:06:44;10.80;79.80
6724;DHT22;3399;52.530;13.304;2023-04-25T12:09:13;10.80;80.30
6724;DHT22;3399;52.530;13.304;2023-04-25T12:11:46;10.60;76.90
6724;DHT22;3399;52.530;13.304;2023-04-25T12:14:34;10.40;76.90
6724;DHT22;3399;52.530;13.304;2023-04-25T12:17:00;10.30;75.70
6724;DHT22;3399;52.530;13.304;2023-04-25T12:19:26;10.30;77.80
6724;DHT22;3399;52.530;13.304;2023-04-25T12:21:52;10.40;77.10
6724;DHT22;3399;52.530;13.304;2023-04-25T12:24:22;10.70;75.60
6724;DHT22;3399;52.530;13.304;2023-04-25T12:29:25;11.20;74.40
6724;DHT22;3399;52.530;13.304;2023-04-25T12:31:52;11.30;73.90
6724;DHT22;3399;52.530;13.304;2023-04-25T12:34:18;11.50;73.40
6724;DHT22;3399;52.530;13.304;2023-04-25T12:36:44;11.20;73.60
6724;DHT22;3399;52.530;13.304;2023-04-25T12:39:23;11.10;71.80
6724;DHT22;3399;52.530;13.304;2023-04-25T12:41:50;10.90;74.40
6724;DHT22;3399;52.530;13.304;2023-04-25T12:44:17;10.60;75.40
6724;DHT22;3399;52.530;13.304;2023-04-25T12:46:43;10.50;76.90
6724;DHT22;3399;52.530;13.304;2023-04-25T12:49:08;10.60;75.70
6724;DHT22;3399;52.530;13.304;2023-04-25T12:51:35;10.60;74.20
6724;DHT22;3399;52.530;13.304;2023-04-25T12:54:02;10.50;73.20
6724;DHT22;3399;52.530;13.304;2023-04-25T12:56:28;10.50;75.00
6724;DHT22;3399;52.530;13.304;2023-04-25T12:58:54;10.70;75.80
6724;DHT22;3399;52.530;13.304;2023-04-25T13:01:20;11.00;75.00
6724;DHT22;3399;52.530;13.304;2023-04-25T13:03:46;11.30;74.50
6724;DHT22;3399;52.530;13.304;2023-04-25T13:06:12;11.70;72.80
6724;DHT22;3399;52.530;13.304;2023-04-25T13:08:38;12.50;74.90
6724;DHT22;3399;52.530;13.304;2023-04-25T13:11:05;14.20;69.10
6724;DHT22;3399;52.530;13.304;2023-04-25T13:13:31;15.60;65.10
6724;DHT22;3399;52.530;13.304;2023-04-25T13:15:57;16.20;58.20
6724;DHT22;3399;52.530;13.304;2023-04-25T13:18:22;15.30;56.70
6724;DHT22;3399;52.530;13.304;2023-04-25T13:20:52;13.80;58.20
6724;DHT22;3399;52.530;13.304;2023-04-25T13:23:17;12.60;63.20
6724;DHT22;3399;52.530;13.304;2023-04-25T13:25:43;12.10;64.10
6724;DHT22;3399;52.530;13.304;2023-04-25T13:28:08;11.70;67.10
6724;DHT22;3399;52.530;13.304;2023-04-25T13:30:34;11.50;67.90
6724;DHT22;3399;52.530;13.304;2023-04-25T13:32:59;11.40;67.10
6724;DHT22;3399;52.530;13.304;2023-04-25T13:35:31;11.30;71.10
6724;DHT22;3399;52.530;13.304;2023-04-25T13:37:57;11.50;72.60
6724;DHT22;3399;52.530;13.304;2023-04-25T13:40:22;11.40;71.20
6724;DHT22;3399;52.530;13.304;2023-04-25T13:42:48;11.50;70.10
6724;DHT22;3399;52.530;13.304;2023-04-25T13:45:13;11.70;69.30
6724;DHT22;3399;52.530;13.304;2023-04-25T13:47:39;12.10;70.90
6724;DHT22;3399;52.530;13.304;2023-04-25T13:50:05;12.50;68.40
6724;DHT22;3399;52.530;13.304;2023-04-25T13:52:31;12.40;68.30
6724;DHT22;3399;52.530;13.304;2023-04-25T13:54:57;12.00;68.20
6724;DHT22;3399;52.530;13.304;2023-04-25T13:57:22;11.60;70.50
6724;DHT22;3399;52.530;13.304;2023-04-25T13:59:48;11.40;73.00
6724;DHT22;3399;52.530;13.304;2023-04-25T14:02:14;11.30;73.20
6724;DHT22;3399;52.530;13.304;2023-04-25T14:04:40;11.40;75.50
6724;DHT22;3399;52.530;13.304;2023-04-25T14:07:05;11.40;74.70
6724;DHT22;3399;52.530;13.304;2023-04-25T14:09:31;11.20;74.00
6724;DHT22;3399;52.530;13.304;2023-04-25T14:11:56;11.00;75.20
6724;DHT22;3399;52.530;13.304;2023-04-25T14:14:22;10.80;76.20
6724;DHT22;3399;52.530;13.304;2023-04-25T14:16:49;10.80;79.20
6724;DHT22;3399;52.530;13.304;2023-04-25T14:19:15;10.80;79.40
6724;DHT22;3399;52.530;13.304;2023-04-25T14:21:41;10.70;77.70
6724;DHT22;3399;52.530;13.304;2023-04-25T14:24:08;10.70;77.20
6724;DHT22;3399;52.530;13.304;2023-04-25T14:26:33;10.60;76.40
6724;DHT22;3399;52.530;13.304;2023-04-25T14:29:00;10.60;77.50
6724;DHT22;3399;52.530;13.304;2023-04-25T14:31:26;10.70;77.60
6724;DHT22;3399;52.530;13.304;2023-04-25T14:33:51;10.90;78.70
6724;DHT22;3399;52.530;13.304;2023-04-25T14:36:17;11.20;76.80
6724;DHT22;3399;52.530;13.304;2023-04-25T14:38:43;11.80;77.10
6724;DHT22;3399;52.530;13.304;2023-04-25T14:41:09;13.40;73.50
6724;DHT22;3399;52.530;13.304;2023-04-25T14:43:34;13.30;70.10
6724;DHT22;3399;52.530;13.304;2023-04-25T14:46:01;12.50;72.00
6724;DHT22;3399;52.530;13.304;2023-04-25T14:48:27;11.60;74.80
6724;DHT22;3399;52.530;13.304;2023-04-25T14:50:52;11.20;76.30
6724;DHT22;3399;52.530;13.304;2023-04-25T14:53:18;10.80;78.10
6724;DHT22;3399;52.530;13.304;2023-04-25T14:55:44;10.60;78.80
6724;DHT22;3399;52.530;13.304;2023-04-25T14:58:09;10.50;80.20
6724;DHT22;3399;52.530;13.304;2023-04-25T15:00:35;10.40;79.50
6724;DHT22;3399;52.530;13.304;2023-04-25T15:03:00;10.40;80.30
6724;DHT22;3399;52.530;13.304;2023-04-25T15:05:26;10.20;79.60
6724;DHT22;3399;52.530;13.304;2023-04-25T15:07:51;10.10;81.50
6724;DHT22;3399;52.530;13.304;2023-04-25T15:10:18;10.10;82.10
6724;DHT22;3399;52.530;13.304;2023-04-25T15:12:44;10.20;82.00
6724;DHT22;3399;52.530;13.304;2023-04-25T15:15:10;10.20;80.70
6724;DHT22;3399;52.530;13.304;2023-04-25T15:17:37;10.30;81.30
6724;DHT22;3399;52.530;13.304;2023-04-25T15:20:05;10.40;80.60
6724;DHT22;3399;52.530;13.304;2023-04-25T15:22:30;10.50;79.50
6724;DHT22;3399;52.530;13.304;2023-04-25T15:24:56;10.70;78.40
6724;DHT22;3399;52.530;13.304;2023-04-25T15:27:22;11.30;77.00
6724;DHT22;3399;52.530;13.304;2023-04-25T15:29:48;11.90;74.70
6724;DHT22;3399;52.530;13.304;2023-04-25T15:32:14;12.10;73.70
6724;DHT22;3399;52.530;13.304;2023-04-25T15:34:39;11.70;72.80
6724;DHT22;3399;52.530;13.304;2023-04-25T15:37:05;11.50;73.30
6724;DHT22;3399;52.530;13.304;2023-04-25T15:39:30;11.50;75.80
6724;DHT22;3399;52.530;13.304;2023-04-25T15:41:56;12.80;71.00
6724;DHT22;3399;52.530;13.304;2023-04-25T15:44:23;12.80;72.50
6724;DHT22;3399;52.530;13.304;2023-04-25T15:46:49;13.00;71.30
6724;DHT22;3399;52.530;13.304;2023-04-25T15:49:15;12.60;71.50
6724;DHT22;3399;52.530;13.304;2023-04-25T15:51:40;12.00;73.40
6724;DHT22;3399;52.530;13.304;2023-04-25T15:54:06;11.50;75.20
6724;DHT22;3399;52.530;13.304;2023-04-25T15:56:31;11.10;76.00